Time;durP1;ratioP1;P1;durP2;ratioP2;P2;SDS_P1;SDS_P2;PMS_P1;PMS_P2;Temp;Humidity;BMP_temperature;BMP_pressure;BME280_temperature;BME280_humidity;BME280_pressure;Samples;Min_cycle;Max_cycle;Signal;HPM_P1;HPM_P2
2022/05/25 00:02:25;;;;;;;;;;;12.10;99.90;;;;;;5094872;28;19927;-72
2022/05/25 00:04:51;;;;;;;;;;;12.20;99.90;;;;;;5093638;28;19922;-71
2022/05/25 00:07:17;;;;;;;;;;;12.30;99.90;;;;;;5093943;28;19971;-72
2022/05/25 00:09:43;;;;;;;;;;;12.30;99.90;;;;;;5095060;28;19962;-73
2022/05/25 00:12:09;;;;;;;;;;;12.30;99.90;;;;;;5095161;28;19916;-72
2022/05/25 00:14:35;;;;;;;;;;;12.30;99.90;;;;;;5088375;28;19920;-71
2022/05/25 00:17:01;;;;;;;;;;;12.30;99.90;;;;;;5076984;28;20247;-71
2022/05/25 00:22:11;;;;;;;;;;;12.20;99.90;;;;;;5088277;28;19953;-72
2022/05/25 00:24:36;;;;;;;;;;;12.30;99.90;;;;;;5094063;28;20285;-71
2022/05/25 00:27:02;;;;;;;;;;;12.40;99.90;;;;;;5091450;28;20906;-71
2022/05/25 00:29:28;;;;;;;;;;;12.40;99.90;;;;;;5092769;28;19912;-71
2022/05/25 00:31:53;;;;;;;;;;;12.40;99.90;;;;;;5089494;28;19924;-70
2022/05/25 00:34:19;;;;;;;;;;;12.40;99.90;;;;;;5092056;28;19912;-72
2022/05/25 00:36:44;;;;;;;;;;;12.40;99.90;;;;;;5090650;28;19916;-71
2022/05/25 00:39:10;;;;;;;;;;;12.20;99.90;;;;;;5092074;28;19916;-71
2022/05/25 00:41:36;;;;;;;;;;;12.20;99.90;;;;;;5093648;28;19912;-70
2022/05/25 00:44:01;;;;;;;;;;;12.10;99.90;;;;;;5073537;28;20056;-72
2022/05/25 00:46:28;;;;;;;;;;;12.10;99.90;;;;;;5089536;28;19913;-71
2022/05/25 00:49:00;;;;;;;;;;;12.00;99.90;;;;;;5092241;28;19976;-72
2022/05/25 00:51:34;;;;;;;;;;;12.00;99.90;;;;;;5092183;28;19928;-71
2022/05/25 00:54:15;;;;;;;;;;;12.00;99.90;;;;;;5089207;28;19919;-72
2022/05/25 00:56:42;;;;;;;;;;;12.20;99.90;;;;;;5071429;28;19920;-72
2022/05/25 00:59:10;;;;;;;;;;;12.10;99.90;;;;;;5091960;28;19916;-71
2022/05/25 01:01:36;;;;;;;;;;;12.10;99.90;;;;;;5087991;28;19912;-71
2022/05/25 01:04:01;;;;;;;;;;;12.10;99.90;;;;;;5092368;28;19948;-71
2022/05/25 01:06:36;;;;;;;;;;;12.20;99.90;;;;;;5089227;28;19912;-71
2022/05/25 01:09:07;;;;;;;;;;;12.20;99.90;;;;;;5087071;28;20259;-71
2022/05/25 01:11:39;;;;;;;;;;;12.30;99.90;;;;;;5093111;28;20281;-71
2022/05/25 01:14:11;;;;;;;;;;;12.20;99.90;;;;;;5099698;28;19997;-72
2022/05/25 01:16:36;;;;;;;;;;;12.20;99.90;;;;;;5097503;28;19922;-71
2022/05/25 01:19:12;;;;;;;;;;;12.30;99.90;;;;;;5092103;28;20000;-71
2022/05/25 01:21:48;;;;;;;;;;;12.40;99.90;;;;;;5090230;28;20379;-72
2022/05/25 01:24:26;;;;;;;;;;;12.30;99.90;;;;;;5093548;28;19912;-71
2022/05/25 01:26:54;;;;;;;;;;;12.20;99.90;;;;;;5092333;28;19916;-71
2022/05/25 01:29:38;;;;;;;;;;;12.40;99.90;;;;;;5094078;28;19926;-72
2022/05/25 01:32:04;;;;;;;;;;;12.50;99.90;;;;;;5095965;28;20406;-72
2022/05/25 01:34:47;;;;;;;;;;;12.60;99.90;;;;;;5092578;28;19913;-72
2022/05/25 01:37:13;;;;;;;;;;;12.60;99.90;;;;;;5092131;28;20043;-72
2022/05/25 01:39:41;;;;;;;;;;;12.70;99.90;;;;;;5092842;28;20068;-71
2022/05/25 01:42:16;;;;;;;;;;;12.70;99.90;;;;;;5094734;28;19939;-71
2022/05/25 01:44:44;;;;;;;;;;;12.80;99.90;;;;;;5094031;28;19975;-72
2022/05/25 01:47:10;;;;;;;;;;;12.80;99.90;;;;;;5093310;28;20016;-71
2022/05/25 01:49:48;;;;;;;;;;;12.70;99.90;;;;;;5095694;28;20293;-71
2022/05/25 01:52:16;;;;;;;;;;;12.60;99.90;;;;;;5092224;28;20002;-71
2022/05/25 01:54:46;;;;;;;;;;;12.60;99.90;;;;;;5094454;28;20365;-71
2022/05/25 01:57:13;;;;;;;;;;;12.70;99.90;;;;;;5096351;28;19946;-71
2022/05/25 01:59:39;;;;;;;;;;;12.80;99.90;;;;;;5089912;28;20412;-72
2022/05/25 02:04:51;;;;;;;;;;;12.90;99.90;;;;;;5096495;28;19918;-72
2022/05/25 02:07:35;;;;;;;;;;;12.90;99.90;;;;;;5090959;28;19921;-72
2022/05/25 02:10:10;;;;;;;;;;;12.90;99.90;;;;;;5091357;28;20279;-72
2022/05/25 02:12:38;;;;;;;;;;;12.90;99.90;;;;;;5094150;28;19912;-72
2022/05/25 02:15:23;;;;;;;;;;;12.90;99.90;;;;;;5094175;28;20238;-71
2022/05/25 02:18:07;;;;;;;;;;;12.90;99.90;;;;;;5091451;28;19927;-71
2022/05/25 02:20:36;;;;;;;;;;;12.90;99.90;;;;;;5089347;28;20047;-71
2022/05/25 02:23:05;;;;;;;;;;;12.70;99.90;;;;;;5089984;28;20007;-73
2022/05/25 02:25:35;;;;;;;;;;;12.70;99.90;;;;;;5091752;28;19920;-72
2022/05/25 02:28:03;;;;;;;;;;;12.70;99.90;;;;;;5093975;28;19912;-72
2022/05/25 02:30:31;;;;;;;;;;;12.60;99.90;;;;;;5095221;28;19951;-70
2022/05/25 02:33:07;;;;;;;;;;;12.50;99.90;;;;;;5093153;28;19984;-71
2022/05/25 02:35:34;;;;;;;;;;;12.50;99.90;;;;;;5073799;28;19928;-72
2022/05/25 02:38:02;;;;;;;;;;;12.50;99.90;;;;;;5076864;28;19912;-71
2022/05/25 02:40:28;;;;;;;;;;;12.50;99.90;;;;;;5089118;28;20005;-71
2022/05/25 02:42:54;;;;;;;;;;;12.50;99.90;;;;;;5094658;28;19912;-71
2022/05/25 02:45:20;;;;;;;;;;;12.50;99.90;;;;;;5094488;28;19912;-72
2022/05/25 02:47:46;;;;;;;;;;;12.50;99.90;;;;;;5095576;28;19927;-72
2022/05/25 02:50:12;;;;;;;;;;;12.50;99.90;;;;;;5074703;28;19948;-71
2022/05/25 02:52:37;;;;;;;;;;;12.50;99.90;;;;;;5095636;28;19912;-72
2022/05/25 02:55:04;;;;;;;;;;;12.40;99.90;;;;;;5093147;28;20019;-71
2022/05/25 02:57:30;;;;;;;;;;;12.50;99.90;;;;;;5095167;28;19912;-72
2022/05/25 02:59:55;;;;;;;;;;;12.40;99.90;;;;;;5093102;28;19916;-72
2022/05/25 03:02:21;;;;;;;;;;;12.30;99.90;;;;;;5077904;28;20002;-72
2022/05/25 03:04:47;;;;;;;;;;;12.40;99.90;;;;;;5092697;28;19944;-71
2022/05/25 03:07:13;;;;;;;;;;;12.50;99.90;;;;;;5092352;28;19934;-72
2022/05/25 03:09:39;;;;;;;;;;;12.40;99.90;;;;;;5076008;28;19923;-71
2022/05/25 03:12:05;;;;;;;;;;;12.30;99.90;;;;;;5093949;28;19920;-72
2022/05/25 03:14:31;;;;;;;;;;;12.40;99.90;;;;;;5095298;28;19924;-71
2022/05/25 03:16:58;;;;;;;;;;;12.40;99.90;;;;;;5091749;28;19920;-72
2022/05/25 03:19:24;;;;;;;;;;;12.40;99.90;;;;;;5095558;28;19916;-71
2022/05/25 03:21:49;;;;;;;;;;;12.30;99.90;;;;;;5091435;28;20401;-71
2022/05/25 03:24:15;;;;;;;;;;;12.20;99.90;;;;;;5091767;28;19969;-71
2022/05/25 03:26:41;;;;;;;;;;;12.30;99.90;;;;;;5077538;28;19912;-71
2022/05/25 03:29:07;;;;;;;;;;;12.30;99.90;;;;;;5095284;28;19919;-71
2022/05/25 03:31:32;;;;;;;;;;;12.30;99.90;;;;;;5095742;28;19912;-71
2022/05/25 03:33:58;;;;;;;;;;;12.20;99.90;;;;;;5074088;28;19920;-71
2022/05/25 03:36:23;;;;;;;;;;;12.10;99.90;;;;;;5097242;28;19943;-71
2022/05/25 03:38:49;;;;;;;;;;;12.10;99.90;;;;;;5096503;28;20556;-71
2022/05/25 03:41:17;;;;;;;;;;;12.00;99.90;;;;;;5073156;28;19912;-71
2022/05/25 03:43:44;;;;;;;;;;;12.00;99.90;;;;;;5100667;28;19912;-71
2022/05/25 03:46:10;;;;;;;;;;;12.10;99.90;;;;;;5096279;28;20799;-71
2022/05/25 03:48:35;;;;;;;;;;;12.10;99.90;;;;;;5076480;28;19912;-71
2022/05/25 03:51:01;;;;;;;;;;;12.10;99.90;;;;;;5099602;28;20322;-71
2022/05/25 03:53:26;;;;;;;;;;;12.10;99.90;;;;;;5097111;28;20234;-71
2022/05/25 03:55:52;;;;;;;;;;;11.90;99.90;;;;;;5098394;28;19923;-71
2022/05/25 03:58:17;;;;;;;;;;;11.90;99.90;;;;;;5100947;28;19916;-71
2022/05/25 04:00:44;;;;;;;;;;;11.80;99.90;;;;;;5096416;28;19923;-71
2022/05/25 04:03:13;;;;;;;;;;;11.90;99.90;;;;;;5093279;28;22059;-72
2022/05/25 04:05:39;;;;;;;;;;;12.00;99.90;;;;;;5096050;28;19912;-71
2022/05/25 04:08:05;;;;;;;;;;;11.90;99.90;;;;;;5098875;28;20005;-71
2022/05/25 04:10:30;;;;;;;;;;;11.90;99.90;;;;;;5093047;28;19916;-71
2022/05/25 04:12:56;;;;;;;;;;;12.00;99.90;;;;;;5092596;28;19923;-72
2022/05/25 04:15:23;;;;;;;;;;;12.00;99.90;;;;;;5076922;28;19938;-72
2022/05/25 04:17:49;;;;;;;;;;;12.00;99.90;;;;;;5097299;28;19971;-72
2022/05/25 04:20:15;;;;;;;;;;;12.20;99.90;;;;;;5085242;28;19921;-71
2022/05/25 04:22:41;;;;;;;;;;;12.20;99.90;;;;;;5092721;28;19912;-72
2022/05/25 04:25:10;;;;;;;;;;;12.10;99.90;;;;;;5092117;28;20069;-71
2022/05/25 04:27:36;;;;;;;;;;;12.10;99.90;;;;;;5093388;28;19912;-71
2022/05/25 04:30:03;;;;;;;;;;;12.10;99.90;;;;;;5079171;28;19912;-71
2022/05/25 04:32:28;;;;;;;;;;;12.00;99.90;;;;;;5093699;28;20377;-72
2022/05/25 04:34:57;;;;;;;;;;;12.10;99.90;;;;;;5074536;28;19912;-71
2022/05/25 04:40:07;;;;;;;;;;;12.20;99.90;;;;;;5095873;28;19919;-71
2022/05/25 04:42:32;;;;;;;;;;;12.20;99.90;;;;;;5091044;28;19916;-71
2022/05/25 04:45:00;;;;;;;;;;;12.20;99.90;;;;;;5082961;28;19919;-71
2022/05/25 04:47:30;;;;;;;;;;;12.20;99.90;;;;;;5105784;28;20014;-72
2022/05/25 04:49:56;;;;;;;;;;;12.20;99.90;;;;;;5112616;28;20378;-72
2022/05/25 04:52:22;;;;;;;;;;;12.20;99.90;;;;;;5107304;28;19913;-72
2022/05/25 04:54:47;;;;;;;;;;;12.20;99.90;;;;;;5103866;28;20025;-72
2022/05/25 04:57:19;;;;;;;;;;;12.30;99.90;;;;;;5103447;28;19952;-72
2022/05/25 04:59:46;;;;;;;;;;;12.40;99.90;;;;;;5086268;28;19943;-72
2022/05/25 05:02:12;;;;;;;;;;;12.40;99.90;;;;;;5086964;28;19912;-71
2022/05/25 05:04:37;;;;;;;;;;;12.40;99.90;;;;;;5091962;28;19912;-72
2022/05/25 05:07:03;;;;;;;;;;;12.40;99.90;;;;;;5101248;28;19919;-71
2022/05/25 05:09:33;;;;;;;;;;;12.50;99.90;;;;;;5084359;28;19912;-72
2022/05/25 05:11:59;;;;;;;;;;;12.40;99.90;;;;;;5101417;28;19999;-72
2022/05/25 05:14:24;;;;;;;;;;;12.40;99.90;;;;;;5101292;28;19955;-72
2022/05/25 05:16:57;;;;;;;;;;;12.60;99.90;;;;;;5102465;28;19920;-72
2022/05/25 05:19:27;;;;;;;;;;;12.50;99.90;;;;;;5075598;28;19913;-72
2022/05/25 05:21:57;;;;;;;;;;;12.60;99.90;;;;;;5100721;28;19912;-72
2022/05/25 05:24:26;;;;;;;;;;;12.50;99.90;;;;;;5083230;28;19912;-72
2022/05/25 05:26:52;;;;;;;;;;;12.70;99.90;;;;;;5083946;28;19917;-71
2022/05/25 05:29:17;;;;;;;;;;;12.70;99.90;;;;;;5101769;28;19912;-71
2022/05/25 05:31:43;;;;;;;;;;;12.80;99.90;;;;;;5091443;28;19969;-71
2022/05/25 05:34:08;;;;;;;;;;;12.90;99.90;;;;;;5103145;28;19912;-72
2022/05/25 05:36:35;;;;;;;;;;;12.90;99.90;;;;;;5103558;28;20322;-72
2022/05/25 05:39:05;;;;;;;;;;;12.90;99.90;;;;;;5082981;28;19924;-72
2022/05/25 05:41:33;;;;;;;;;;;12.90;99.90;;;;;;5083327;28;19916;-72
2022/05/25 05:43:58;;;;;;;;;;;13.00;99.90;;;;;;5090778;28;19961;-71
2022/05/25 05:46:26;;;;;;;;;;;13.00;99.90;;;;;;5083962;28;19912;-71
2022/05/25 05:48:52;;;;;;;;;;;13.00;99.90;;;;;;5099837;28;19912;-72
2022/05/25 05:51:18;;;;;;;;;;;12.90;99.90;;;;;;5100877;28;19934;-73
2022/05/25 05:53:44;;;;;;;;;;;12.90;99.90;;;;;;5103946;28;19912;-72
2022/05/25 05:56:10;;;;;;;;;;;13.00;99.90;;;;;;5101098;28;19963;-72
2022/05/25 05:58:35;;;;;;;;;;;12.90;99.90;;;;;;5101204;28;19933;-72
2022/05/25 06:01:01;;;;;;;;;;;12.80;99.90;;;;;;5084932;28;20374;-73
2022/05/25 06:03:27;;;;;;;;;;;12.80;99.90;;;;;;5097542;28;19934;-72
2022/05/25 06:05:53;;;;;;;;;;;12.80;99.90;;;;;;5096095;28;19979;-72
2022/05/25 06:08:21;;;;;;;;;;;12.90;99.90;;;;;;5098568;28;19912;-73
2022/05/25 06:10:46;;;;;;;;;;;13.10;99.90;;;;;;5097406;28;19947;-73
2022/05/25 06:13:12;;;;;;;;;;;13.10;99.90;;;;;;5099563;28;20262;-71
2022/05/25 06:21:07;;;;;;;;;;;13.00;99.90;;;;;;5101376;28;19935;-72
2022/05/25 06:23:33;;;;;;;;;;;13.20;99.90;;;;;;5102749;28;19951;-72
2022/05/25 06:25:59;;;;;;;;;;;13.20;99.90;;;;;;5100594;28;20278;-72
2022/05/25 06:28:24;;;;;;;;;;;13.20;99.90;;;;;;5100643;28;20033;-72
2022/05/25 06:30:50;;;;;;;;;;;13.30;99.90;;;;;;5094976;28;19912;-73
2022/05/25 06:33:15;;;;;;;;;;;13.20;99.90;;;;;;5099125;28;19912;-73
2022/05/25 06:35:41;;;;;;;;;;;13.20;99.90;;;;;;5102191;28;19991;-73
2022/05/25 06:38:07;;;;;;;;;;;13.20;99.90;;;;;;5092818;28;20003;-74
2022/05/25 06:40:33;;;;;;;;;;;13.20;99.90;;;;;;5092637;28;19919;-72
2022/05/25 06:42:58;;;;;;;;;;;13.30;99.90;;;;;;5095030;28;19912;-72
2022/05/25 06:45:24;;;;;;;;;;;13.30;99.90;;;;;;5088400;28;19990;-72
2022/05/25 06:47:50;;;;;;;;;;;13.20;99.90;;;;;;5085337;28;20511;-72
2022/05/25 06:50:15;;;;;;;;;;;13.30;99.90;;;;;;5073832;28;20251;-69
2022/05/25 06:52:41;;;;;;;;;;;13.30;99.90;;;;;;5101564;28;19940;-69
2022/05/25 06:55:07;;;;;;;;;;;13.30;99.90;;;;;;5091935;28;19912;-69
2022/05/25 06:57:32;;;;;;;;;;;13.20;99.90;;;;;;5095857;28;19918;-69
2022/05/25 06:59:58;;;;;;;;;;;13.20;99.90;;;;;;5091397;28;20250;-69
2022/05/25 07:02:24;;;;;;;;;;;13.20;99.90;;;;;;5097192;28;20175;-70
2022/05/25 07:04:51;;;;;;;;;;;13.20;99.90;;;;;;5073124;28;19927;-69
2022/05/25 07:07:17;;;;;;;;;;;13.20;99.90;;;;;;5090098;28;19972;-68
2022/05/25 07:09:43;;;;;;;;;;;13.20;99.90;;;;;;5096500;28;19912;-69
2022/05/25 07:12:09;;;;;;;;;;;13.30;99.90;;;;;;5094987;28;20005;-69
2022/05/25 07:14:35;;;;;;;;;;;13.30;99.90;;;;;;5102394;28;19921;-69
2022/05/25 07:17:01;;;;;;;;;;;13.30;99.90;;;;;;5099799;28;20019;-70
2022/05/25 07:19:27;;;;;;;;;;;13.40;99.90;;;;;;5093480;28;20346;-69
2022/05/25 07:21:53;;;;;;;;;;;13.30;99.90;;;;;;5084488;28;20038;-69
2022/05/25 07:24:21;;;;;;;;;;;13.30;99.90;;;;;;5095432;28;19931;-69
2022/05/25 07:26:47;;;;;;;;;;;13.40;99.90;;;;;;5091636;28;20381;-68
2022/05/25 07:29:14;;;;;;;;;;;13.50;99.90;;;;;;5096169;28;19919;-68
2022/05/25 07:31:40;;;;;;;;;;;13.50;99.90;;;;;;5091331;28;19912;-69
2022/05/25 07:34:23;;;;;;;;;;;13.60;99.90;;;;;;5090478;28;20037;-68
2022/05/25 07:37:00;;;;;;;;;;;13.50;99.90;;;;;;5090012;28;20290;-68
2022/05/25 07:39:32;;;;;;;;;;;13.70;99.90;;;;;;5090927;28;20296;-68
2022/05/25 07:41:58;;;;;;;;;;;13.80;99.90;;;;;;5095266;28;19928;-69
2022/05/25 07:44:32;;;;;;;;;;;14.00;99.90;;;;;;5077977;28;20007;-69
2022/05/25 07:46:58;;;;;;;;;;;14.00;99.90;;;;;;5094226;28;20394;-70
2022/05/25 07:49:23;;;;;;;;;;;14.00;99.90;;;;;;5097995;28;19927;-68
2022/05/25 07:51:50;;;;;;;;;;;14.10;99.90;;;;;;5092330;28;19919;-70
2022/05/25 07:54:16;;;;;;;;;;;14.10;99.90;;;;;;5089475;28;19912;-68
2022/05/25 07:56:41;;;;;;;;;;;14.10;99.90;;;;;;5076226;28;19924;-69
2022/05/25 07:59:09;;;;;;;;;;;14.10;99.90;;;;;;5094824;28;19923;-69
2022/05/25 08:07:23;;;;;;;;;;;14.20;99.90;;;;;;5043516;28;19921;-69
2022/05/25 08:09:51;;;;;;;;;;;14.30;99.90;;;;;;5095001;28;19919;-68
2022/05/25 08:12:17;;;;;;;;;;;14.40;99.90;;;;;;5095287;28;19919;-68
2022/05/25 08:14:43;;;;;;;;;;;14.60;99.90;;;;;;5091629;28;19933;-69
2022/05/25 08:17:08;;;;;;;;;;;14.70;99.90;;;;;;5097148;28;19954;-70
2022/05/25 08:19:34;;;;;;;;;;;14.70;99.90;;;;;;5074097;28;19984;-69
2022/05/25 08:22:00;;;;;;;;;;;14.80;99.90;;;;;;5074894;28;19913;-69
2022/05/25 08:24:25;;;;;;;;;;;14.80;99.90;;;;;;5095144;28;19941;-69
2022/05/25 08:26:51;;;;;;;;;;;15.00;99.90;;;;;;5080396;28;20008;-69
2022/05/25 08:29:18;;;;;;;;;;;14.90;99.90;;;;;;5093695;28;19959;-69
2022/05/25 08:31:43;;;;;;;;;;;15.00;99.90;;;;;;5095247;28;20022;-69
2022/05/25 08:34:09;;;;;;;;;;;15.00;99.90;;;;;;5092308;28;19955;-69
2022/05/25 08:36:35;;;;;;;;;;;15.00;99.90;;;;;;5094481;28;19935;-68
2022/05/25 08:39:00;;;;;;;;;;;14.90;99.90;;;;;;5077095;28;19923;-69
2022/05/25 08:41:29;;;;;;;;;;;15.00;99.90;;;;;;5088359;28;19920;-68
2022/05/25 08:43:54;;;;;;;;;;;15.10;99.90;;;;;;5093831;28;19912;-70
2022/05/25 08:46:24;;;;;;;;;;;15.10;99.90;;;;;;5092750;28;20022;-68
2022/05/25 08:48:50;;;;;;;;;;;15.00;99.90;;;;;;5089674;28;19920;-69
2022/05/25 08:51:25;;;;;;;;;;;14.70;99.90;;;;;;5092398;28;20373;-69
2022/05/25 08:53:52;;;;;;;;;;;14.70;99.90;;;;;;5097108;28;19916;-68
2022/05/25 08:56:32;;;;;;;;;;;14.70;99.90;;;;;;5099117;28;19916;-69
2022/05/25 08:58:57;;;;;;;;;;;14.60;99.90;;;;;;5097248;28;19963;-69
2022/05/25 09:01:32;;;;;;;;;;;14.70;99.90;;;;;;5098980;28;19919;-70
2022/05/25 09:04:06;;;;;;;;;;;14.70;99.90;;;;;;5081607;28;19919;-69
2022/05/25 09:06:50;;;;;;;;;;;14.70;99.90;;;;;;5095925;28;19934;-70
2022/05/25 09:09:20;;;;;;;;;;;14.80;99.90;;;;;;5097958;28;19976;-69
2022/05/25 09:11:49;;;;;;;;;;;14.70;99.90;;;;;;5095913;28;20267;-70
2022/05/25 09:14:28;;;;;;;;;;;14.90;99.90;;;;;;5078567;28;20345;-69
2022/05/25 09:16:57;;;;;;;;;;;15.00;99.90;;;;;;5071555;28;19927;-69
2022/05/25 09:19:26;;;;;;;;;;;15.00;99.90;;;;;;5088021;28;19912;-67
2022/05/25 09:21:53;;;;;;;;;;;15.10;99.90;;;;;;5089030;28;19938;-68
2022/05/25 09:24:23;;;;;;;;;;;15.20;99.90;;;;;;5090179;28;20281;-68
2022/05/25 09:26:49;;;;;;;;;;;15.30;99.90;;;;;;5086482;28;20070;-69
2022/05/25 09:29:15;;;;;;;;;;;15.60;99.90;;;;;;5074342;28;20029;-67
2022/05/25 09:31:46;;;;;;;;;;;15.60;99.90;;;;;;5091676;28;19912;-68
2022/05/25 09:34:16;;;;;;;;;;;15.70;99.90;;;;;;5093608;28;19912;-68
2022/05/25 09:36:51;;;;;;;;;;;15.70;99.90;;;;;;5077759;28;19916;-68
2022/05/25 09:39:31;;;;;;;;;;;15.70;99.90;;;;;;5092884;28;19927;-68
2022/05/25 09:42:02;;;;;;;;;;;15.70;99.90;;;;;;5074244;28;19912;-69
2022/05/25 09:44:28;;;;;;;;;;;15.60;99.90;;;;;;5093741;28;19912;-69
2022/05/25 09:47:03;;;;;;;;;;;15.60;99.90;;;;;;5092820;28;19943;-69
2022/05/25 09:49:29;;;;;;;;;;;15.40;99.90;;;;;;5095867;28;19919;-68
2022/05/25 09:51:54;;;;;;;;;;;15.30;99.90;;;;;;5093056;28;19943;-69
2022/05/25 09:54:20;;;;;;;;;;;15.20;99.90;;;;;;5090016;28;19913;-69
2022/05/25 09:56:50;;;;;;;;;;;15.20;99.90;;;;;;5093328;28;19916;-68
2022/05/25 09:59:30;;;;;;;;;;;15.20;99.90;;;;;;5083970;28;19923;-67
2022/05/25 10:01:56;;;;;;;;;;;15.30;99.90;;;;;;5095693;28;19974;-67
2022/05/25 10:04:51;;;;;;;;;;;15.40;99.90;;;;;;5090428;28;19912;-67
2022/05/25 10:07:30;;;;;;;;;;;15.50;99.90;;;;;;5076014;28;19912;-68
2022/05/25 10:09:58;;;;;;;;;;;15.50;99.90;;;;;;5073723;28;19912;-67
2022/05/25 10:12:40;;;;;;;;;;;15.60;99.90;;;;;;5075799;28;19919;-69
2022/05/25 10:15:08;;;;;;;;;;;15.60;99.90;;;;;;5094579;28;20263;-69
2022/05/25 10:17:35;;;;;;;;;;;15.70;99.90;;;;;;5092721;28;20003;-69
2022/05/25 10:20:01;;;;;;;;;;;15.70;99.90;;;;;;5076690;28;19912;-68
2022/05/25 10:22:31;;;;;;;;;;;15.90;99.90;;;;;;5073872;28;20072;-70
2022/05/25 10:24:59;;;;;;;;;;;15.80;99.90;;;;;;5092679;28;19912;-69
2022/05/25 10:27:32;;;;;;;;;;;15.70;99.90;;;;;;5091544;28;19920;-68
2022/05/25 10:38:29;;;;;;;;;;;15.10;99.90;;;;;;5089241;28;19973;-69
2022/05/25 10:40:56;;;;;;;;;;;15.10;99.90;;;;;;5089219;28;19912;-70
2022/05/25 10:43:27;;;;;;;;;;;15.20;99.90;;;;;;5085386;28;20011;-68
2022/05/25 10:45:53;;;;;;;;;;;15.20;99.90;;;;;;5088296;28;20265;-68
2022/05/25 10:48:38;;;;;;;;;;;15.30;99.90;;;;;;5092251;28;20025;-69
2022/05/25 10:51:08;;;;;;;;;;;15.40;99.90;;;;;;5091491;28;19919;-69
2022/05/25 10:53:37;;;;;;;;;;;15.50;99.90;;;;;;5091903;28;20011;-68
2022/05/25 10:56:24;;;;;;;;;;;15.50;99.90;;;;;;5094258;28;19920;-67
2022/05/25 10:59:13;;;;;;;;;;;15.40;99.90;;;;;;5089313;28;19916;-69
2022/05/25 11:01:41;;;;;;;;;;;15.40;99.90;;;;;;5089623;28;19935;-69
2022/05/25 11:04:25;;;;;;;;;;;15.50;99.90;;;;;;5088714;28;19919;-70
2022/05/25 11:07:07;;;;;;;;;;;15.60;99.90;;;;;;5087691;28;19912;-69
2022/05/25 11:09:38;;;;;;;;;;;15.60;99.90;;;;;;5091231;28;20421;-69
2022/05/25 11:12:03;;;;;;;;;;;15.50;99.90;;;;;;5092599;28;19912;-69
2022/05/25 11:14:36;;;;;;;;;;;15.50;99.90;;;;;;5086903;28;19920;-68
2022/05/25 11:17:07;;;;;;;;;;;15.60;99.90;;;;;;5069780;28;19924;-70
2022/05/25 11:19:33;;;;;;;;;;;15.60;99.90;;;;;;5073446;28;20255;-70
2022/05/25 11:22:21;;;;;;;;;;;15.50;99.90;;;;;;5075161;28;19919;-69
2022/05/25 11:25:05;;;;;;;;;;;15.50;99.90;;;;;;5088609;28;20358;-69
2022/05/25 11:27:34;;;;;;;;;;;15.50;99.90;;;;;;5084527;28;19997;-69
2022/05/25 11:30:17;;;;;;;;;;;15.40;99.90;;;;;;5091571;28;19915;-69
2022/05/25 11:32:50;;;;;;;;;;;15.30;99.90;;;;;;5085303;28;20332;-70
2022/05/25 11:35:21;;;;;;;;;;;15.40;99.90;;;;;;5090242;28;19916;-69
2022/05/25 11:38:11;;;;;;;;;;;15.50;99.90;;;;;;5090663;28;20006;-68
2022/05/25 11:40:44;;;;;;;;;;;15.70;99.90;;;;;;5057477;28;19916;-69
2022/05/25 11:43:29;;;;;;;;;;;15.70;99.90;;;;;;5071286;28;20003;-70
2022/05/25 11:46:01;;;;;;;;;;;15.70;99.90;;;;;;5090838;28;19924;-68
2022/05/25 11:48:53;;;;;;;;;;;15.70;99.90;;;;;;5089401;28;19934;-70
2022/05/25 11:51:38;;;;;;;;;;;15.90;99.90;;;;;;5054123;28;19920;-69
2022/05/25 11:54:22;;;;;;;;;;;16.10;99.90;;;;;;5092320;28;19973;-70
2022/05/25 11:56:57;;;;;;;;;;;16.20;99.90;;;;;;5089251;28;19946;-70
2022/05/25 11:59:22;;;;;;;;;;;16.30;99.90;;;;;;5087327;28;19927;-68
2022/05/25 12:02:08;;;;;;;;;;;16.50;99.90;;;;;;5089738;28;19920;-69
2022/05/25 12:04:49;;;;;;;;;;;16.50;99.90;;;;;;5025226;28;19969;-68
2022/05/25 12:07:14;;;;;;;;;;;16.50;99.90;;;;;;5086950;28;19939;-69
2022/05/25 12:10:03;;;;;;;;;;;16.60;99.90;;;;;;5088906;28;19912;-68
2022/05/25 12:12:42;;;;;;;;;;;16.50;99.90;;;;;;5068309;28;20011;-67
2022/05/25 12:15:22;;;;;;;;;;;16.50;99.90;;;;;;5067561;28;20015;-68
2022/05/25 12:17:54;;;;;;;;;;;16.60;99.90;;;;;;5085373;28;19947;-69
2022/05/25 12:20:28;;;;;;;;;;;16.80;99.90;;;;;;5062282;28;19975;-70
2022/05/25 12:22:57;;;;;;;;;;;16.90;99.90;;;;;;5088805;28;20412;-70
2022/05/25 12:25:22;;;;;;;;;;;17.00;99.90;;;;;;5092912;28;19916;-69
2022/05/25 12:27:52;;;;;;;;;;;17.10;99.90;;;;;;5096357;28;19939;-70
2022/05/25 12:30:28;;;;;;;;;;;17.10;99.90;;;;;;5093609;28;19942;-69
2022/05/25 12:32:54;;;;;;;;;;;16.70;99.90;;;;;;5092138;28;20011;-70
2022/05/25 12:35:22;;;;;;;;;;;16.60;99.90;;;;;;5094550;28;19966;-69
2022/05/25 12:37:48;;;;;;;;;;;16.70;99.90;;;;;;5080681;28;19920;-69
2022/05/25 12:40:33;;;;;;;;;;;16.80;99.90;;;;;;5093432;28;19920;-68
2022/05/25 12:42:59;;;;;;;;;;;16.80;99.90;;;;;;5089827;28;19916;-69
2022/05/25 12:48:32;;;;;;;;;;;17.30;99.90;;;;;;5098048;28;19926;-68
2022/05/25 12:51:02;;;;;;;;;;;17.60;99.90;;;;;;5094953;28;19913;-69
2022/05/25 12:53:33;;;;;;;;;;;17.50;99.90;;;;;;5094861;28;20055;-69
2022/05/25 12:56:15;;;;;;;;;;;17.30;99.90;;;;;;5096175;28;20370;-70
2022/05/25 12:58:43;;;;;;;;;;;17.00;99.90;;;;;;5081248;28;19991;-69
2022/05/25 13:01:28;;;;;;;;;;;16.90;99.90;;;;;;5091789;28;19934;-67
2022/05/25 13:03:54;;;;;;;;;;;16.70;99.90;;;;;;5080555;28;19962;-70
2022/05/25 13:06:21;;;;;;;;;;;16.90;99.90;;;;;;5097423;28;19916;-70
2022/05/25 13:08:47;;;;;;;;;;;17.10;99.90;;;;;;5085958;28;20450;-69
2022/05/25 13:11:33;;;;;;;;;;;17.30;99.90;;;;;;5099600;28;19913;-70
2022/05/25 13:14:00;;;;;;;;;;;17.50;99.90;;;;;;5102604;28;19912;-69
2022/05/25 13:16:40;;;;;;;;;;;17.80;99.90;;;;;;5100480;28;19946;-70
2022/05/25 13:19:25;;;;;;;;;;;17.70;99.90;;;;;;5102267;28;19923;-69
2022/05/25 13:22:02;;;;;;;;;;;17.70;99.90;;;;;;5081186;28;19912;-69
2022/05/25 13:24:32;;;;;;;;;;;17.70;99.90;;;;;;5084273;28;19912;-70
2022/05/25 13:27:03;;;;;;;;;;;17.60;99.90;;;;;;5104062;28;19927;-69
2022/05/25 13:29:43;;;;;;;;;;;17.50;99.90;;;;;;5101937;28;19916;-69
2022/05/25 13:32:13;;;;;;;;;;;17.10;99.90;;;;;;5098091;28;19916;-69
2022/05/25 13:34:38;;;;;;;;;;;16.70;99.90;;;;;;5097313;28;19912;-68
2022/05/25 13:37:11;;;;;;;;;;;16.60;99.90;;;;;;5097019;28;19920;-69
2022/05/25 13:39:37;;;;;;;;;;;17.00;99.90;;;;;;5090246;28;19924;-68
2022/05/25 13:42:11;;;;;;;;;;;17.50;99.90;;;;;;5102001;28;19933;-69
2022/05/25 13:44:42;;;;;;;;;;;18.00;99.90;;;;;;5081317;28;19915;-69
2022/05/25 13:47:08;;;;;;;;;;;18.10;99.90;;;;;;5080995;28;19916;-69
2022/05/25 13:49:36;;;;;;;;;;;18.40;99.90;;;;;;5102491;28;19914;-69
2022/05/25 13:52:16;;;;;;;;;;;18.60;99.90;;;;;;5103061;28;19988;-69
2022/05/25 13:54:42;;;;;;;;;;;18.50;99.90;;;;;;5097473;28;19912;-69
2022/05/25 13:57:14;;;;;;;;;;;18.30;99.90;;;;;;5080595;28;19997;-67
2022/05/25 13:59:40;;;;;;;;;;;18.20;99.90;;;;;;5095121;28;21461;-69
2022/05/25 14:02:09;;;;;;;;;;;17.90;99.90;;;;;;5098645;28;19908;-69
2022/05/25 14:04:37;;;;;;;;;;;17.80;99.90;;;;;;5103533;28;19916;-69
2022/05/25 14:07:02;;;;;;;;;;;17.70;99.90;;;;;;5102106;28;19935;-68
2022/05/25 14:12:14;;;;;;;;;;;17.80;99.90;;;;;;5100606;28;19938;-68
2022/05/25 14:15:01;;;;;;;;;;;18.10;99.90;;;;;;5100074;28;19999;-68
2022/05/25 14:17:27;;;;;;;;;;;18.20;99.90;;;;;;5102609;28;20267;-69
2022/05/25 14:19:54;;;;;;;;;;;18.00;99.90;;;;;;5100286;28;19916;-69
2022/05/25 14:22:22;;;;;;;;;;;18.20;99.90;;;;;;5103120;28;19969;-67
2022/05/25 14:24:50;;;;;;;;;;;18.00;99.90;;;;;;5103662;28;19920;-69
2022/05/25 14:27:36;;;;;;;;;;;17.90;99.90;;;;;;5101800;28;19912;-69
2022/05/25 14:30:16;;;;;;;;;;;17.90;99.90;;;;;;5103452;28;20022;-69
2022/05/25 14:32:46;;;;;;;;;;;17.70;99.90;;;;;;5099192;28;19948;-67
2022/05/25 14:35:13;;;;;;;;;;;17.60;99.90;;;;;;5079955;28;19919;-68
2022/05/25 14:37:39;;;;;;;;;;;17.50;99.90;;;;;;5101453;28;19916;-69
2022/05/25 14:40:07;;;;;;;;;;;17.30;99.90;;;;;;5103502;28;19923;-69
2022/05/25 14:42:34;;;;;;;;;;;17.10;99.90;;;;;;5101040;28;19928;-69
2022/05/25 14:45:06;;;;;;;;;;;17.10;99.90;;;;;;5103364;28;19912;-69
2022/05/25 14:47:32;;;;;;;;;;;17.00;99.90;;;;;;5099208;28;20266;-68
2022/05/25 14:50:08;;;;;;;;;;;17.30;99.90;;;;;;5101358;28;19935;-68
2022/05/25 14:52:34;;;;;;;;;;;17.60;99.90;;;;;;5102266;28;20297;-68
2022/05/25 14:55:08;;;;;;;;;;;17.80;99.90;;;;;;5104262;28;19912;-68
2022/05/25 14:57:34;;;;;;;;;;;17.90;99.90;;;;;;5104458;28;19980;-68
2022/05/25 15:00:01;;;;;;;;;;;18.00;99.90;;;;;;5100086;28;19916;-68
2022/05/25 15:02:37;;;;;;;;;;;17.80;99.90;;;;;;5105223;28;19916;-69
2022/05/25 15:05:23;;;;;;;;;;;17.90;99.90;;;;;;5098777;28;19957;-69